sensor_id;sensor_type;location;lat;lon;timestamp;pressure;altitude;pressure_sealevel;temperature;humidity
18795;BME280;29610;49.022;12.114;2022-09-09T00:00:44;97491.09;;;15.73;100.00
18795;BME280;29610;49.022;12.114;2022-09-09T00:03:19;97483.94;;;15.69;100.00
18795;BME280;29610;49.022;12.114;2022-09-09T00:06:03;97492.09;;;15.65;100.00
18795;BME280;29610;49.022;12.114;2022-09-09T00:08:47;97482.38;;;15.68;100.00
18795;BME280;29610;49.022;12.114;2022-09-09T00:11:28;97489.06;;;15.70;100.00
18795;BME280;29610;49.022;12.114;2022-09-09T00:14:03;97482.47;;;15.71;100.00
18795;BME280;29610;49.022;12.114;2022-09-09T00:16:38;97483.22;;;15.72;100.00
18795;BME280;29610;49.022;12.114;2022-09-09T00:19:20;97477.03;;;15.75;100.00
18795;BME280;29610;49.022;12.114;2022-09-09T00:22:05;97480.56;;;15.75;100.00
18795;BME280;29610;49.022;12.114;2022-09-09T00:24:43;97484.84;;;15.73;100.00
18795;BME280;29610;49.022;12.114;2022-09-09T00:27:23;97481.81;;;15.78;100.00
18795;BME280;29610;49.022;12.114;2022-09-09T00:30:12;97479.56;;;15.83;100.00
18795;BME280;29610;49.022;12.114;2022-09-09T00:32:42;97474.38;;;15.78;100.00
18795;BME280;29610;49.022;12.114;2022-09-09T00:35:21;97471.25;;;15.80;100.00
18795;BME280;29610;49.022;12.114;2022-09-09T00:38:00;97475.53;;;15.77;100.00
18795;BME280;29610;49.022;12.114;2022-09-09T00:40:33;97471.25;;;15.80;100.00
18795;BME280;29610;49.022;12.114;2022-09-09T00:43:24;97478.34;;;15.81;100.00
18795;BME280;29610;49.022;12.114;2022-09-09T00:46:25;97478.84;;;15.86;100.00
18795;BME280;29610;49.022;12.114;2022-09-09T00:49:09;97483.22;;;15.91;100.00
18795;BME280;29610;49.022;12.114;2022-09-09T00:51:55;97482.59;;;15.97;100.00
18795;BME280;29610;49.022;12.114;2022-09-09T00:54:40;97482.19;;;15.95;100.00
18795;BME280;29610;49.022;12.114;2022-09-09T00:57:23;97484.19;;;15.98;100.00
18795;BME280;29610;49.022;12.114;2022-09-09T01:00:20;97483.53;;;16.05;100.00
18795;BME280;29610;49.022;12.114;2022-09-09T01:06:11;97486.56;;;16.00;100.00
18795;BME280;29610;49.022;12.114;2022-09-09T01:09:08;97493.56;;;15.97;100.00
18795;BME280;29610;49.022;12.114;2022-09-09T01:11:52;97494.28;;;15.94;100.00
18795;BME280;29610;49.022;12.114;2022-09-09T01:14:40;97482.19;;;15.95;100.00
18795;BME280;29610;49.022;12.114;2022-09-09T01:17:16;97485.63;;;15.92;100.00
18795;BME280;29610;49.022;12.114;2022-09-09T01:20:04;97493.78;;;15.89;100.00
18795;BME280;29610;49.022;12.114;2022-09-09T01:22:55;97491.81;;;15.89;100.00
18795;BME280;29610;49.022;12.114;2022-09-09T01:26:17;97488.72;;;15.91;100.00
18795;BME280;29610;49.022;12.114;2022-09-09T01:28:50;97489.72;;;15.83;100.00
18795;BME280;29610;49.022;12.114;2022-09-09T01:31:28;97485.50;;;15.85;100.00
18795;BME280;29610;49.022;12.114;2022-09-09T01:33:58;97479.19;;;15.85;100.00
18795;BME280;29610;49.022;12.114;2022-09-09T01:36:37;97482.59;;;15.78;100.00
18795;BME280;29610;49.022;12.114;2022-09-09T01:39:06;97479.00;;;15.74;100.00
18795;BME280;29610;49.022;12.114;2022-09-09T01:41:38;97470.78;;;15.74;100.00
18795;BME280;29610;49.022;12.114;2022-09-09T01:44:11;97474.66;;;15.73;100.00
18795;BME280;29610;49.022;12.114;2022-09-09T01:46:43;97471.06;;;15.69;100.00
18795;BME280;29610;49.022;12.114;2022-09-09T01:49:18;97475.28;;;15.67;100.00
18795;BME280;29610;49.022;12.114;2022-09-09T01:51:51;97474.16;;;15.68;100.00
18795;BME280;29610;49.022;12.114;2022-09-09T01:54:30;97480.06;;;15.70;100.00
18795;BME280;29610;49.022;12.114;2022-09-09T01:57:15;97488.22;;;15.66;100.00
18795;BME280;29610;49.022;12.114;2022-09-09T02:00:02;97480.06;;;15.70;100.00
18795;BME280;29610;49.022;12.114;2022-09-09T02:02:50;97480.75;;;15.67;100.00
18795;BME280;29610;49.022;12.114;2022-09-09T02:05:35;97484.22;;;15.64;100.00
18795;BME280;29610;49.022;12.114;2022-09-09T02:08:17;97476.38;;;15.62;100.00
18795;BME280;29610;49.022;12.114;2022-09-09T02:11:01;97475.78;;;15.53;100.00
18795;BME280;29610;49.022;12.114;2022-09-09T02:13:46;97482.56;;;15.59;100.00
18795;BME280;29610;49.022;12.114;2022-09-09T02:16:24;97485.66;;;15.58;100.00
18795;BME280;29610;49.022;12.114;2022-09-09T02:19:01;97485.59;;;15.54;100.00
18795;BME280;29610;49.022;12.114;2022-09-09T02:21:46;97495.41;;;15.55;100.00
18795;BME280;29610;49.022;12.114;2022-09-09T02:24:16;97486.75;;;15.53;100.00
18795;BME280;29610;49.022;12.114;2022-09-09T02:26:54;97495.41;;;15.55;100.00
18795;BME280;29610;49.022;12.114;2022-09-09T02:29:31;97495.31;;;15.52;100.00
18795;BME280;29610;49.022;12.114;2022-09-09T02:32:06;97496.03;;;15.49;100.00
18795;BME280;29610;49.022;12.114;2022-09-09T02:34:44;97493.75;;;15.51;100.00
18795;BME280;29610;49.022;12.114;2022-09-09T02:37:17;97493.81;;;15.54;100.00
18795;BME280;29610;49.022;12.114;2022-09-09T02:39:51;97487.97;;;15.56;100.00
18795;BME280;29610;49.022;12.114;2022-09-09T02:42:22;97487.97;;;15.56;100.00
18795;BME280;29610;49.022;12.114;2022-09-09T02:44:56;97487.97;;;15.56;100.00
18795;BME280;29610;49.022;12.114;2022-09-09T02:47:31;97486.09;;;15.60;100.00
18795;BME280;29610;49.022;12.114;2022-09-09T02:50:15;97484.59;;;15.62;100.00
18795;BME280;29610;49.022;12.114;2022-09-09T02:53:02;97490.44;;;15.61;100.00
18795;BME280;29610;49.022;12.114;2022-09-09T02:55:39;97480.91;;;15.55;100.00
18795;BME280;29610;49.022;12.114;2022-09-09T02:58:15;97476.66;;;15.57;100.00
18795;BME280;29610;49.022;12.114;2022-09-09T03:00:55;97480.47;;;15.53;100.00
18795;BME280;29610;49.022;12.114;2022-09-09T03:03:27;97480.91;;;15.55;100.00
18795;BME280;29610;49.022;12.114;2022-09-09T03:05:56;97478.16;;;15.55;100.00
18795;BME280;29610;49.022;12.114;2022-09-09T03:08:26;97472.97;;;15.50;100.00
18795;BME280;29610;49.022;12.114;2022-09-09T03:10:59;97475.34;;;15.51;100.00
18795;BME280;29610;49.022;12.114;2022-09-09T03:13:34;97469.00;;;15.47;100.00
18795;BME280;29610;49.022;12.114;2022-09-09T03:16:07;97473.06;;;15.53;100.00
18795;BME280;29610;49.022;12.114;2022-09-09T03:18:41;97473.41;;;15.52;100.00
18795;BME280;29610;49.022;12.114;2022-09-09T03:21:10;97473.22;;;15.60;100.00
18795;BME280;29610;49.022;12.114;2022-09-09T03:23:40;97479.75;;;15.56;100.00
18795;BME280;29610;49.022;12.114;2022-09-09T03:26:08;97479.34;;;15.54;100.00
18795;BME280;29610;49.022;12.114;2022-09-09T03:28:43;97482.56;;;15.59;100.00
18795;BME280;29610;49.022;12.114;2022-09-09T03:31:17;97478.03;;;15.67;100.00
18795;BME280;29610;49.022;12.114;2022-09-09T03:33:46;97481.50;;;15.64;100.00
18795;BME280;29610;49.022;12.114;2022-09-09T03:36:16;97483.19;;;15.68;100.00
18795;BME280;29610;49.022;12.114;2022-09-09T03:38:45;97484.66;;;15.66;100.00
18795;BME280;29610;49.022;12.114;2022-09-09T03:41:13;97485.56;;;15.70;100.00
18795;BME280;29610;49.022;12.114;2022-09-09T03:43:42;97487.56;;;15.73;100.00
18795;BME280;29610;49.022;12.114;2022-09-09T03:46:11;97487.84;;;15.68;100.00
18795;BME280;29610;49.022;12.114;2022-09-09T03:48:40;97480.50;;;15.72;100.00
18795;BME280;29610;49.022;12.114;2022-09-09T03:51:09;97486.69;;;15.69;100.00
18795;BME280;29610;49.022;12.114;2022-09-09T03:53:38;97486.41;;;15.74;100.00
18795;BME280;29610;49.022;12.114;2022-09-09T03:56:07;97477.38;;;15.73;100.00
18795;BME280;29610;49.022;12.114;2022-09-09T03:58:38;97479.41;;;15.76;100.00
18795;BME280;29610;49.022;12.114;2022-09-09T04:01:10;97474.66;;;15.73;100.00
18795;BME280;29610;49.022;12.114;2022-09-09T04:03:43;97479.72;;;15.71;100.00
18795;BME280;29610;49.022;12.114;2022-09-09T04:06:14;97478.03;;;15.67;100.00
18795;BME280;29610;49.022;12.114;2022-09-09T04:08:45;97480.84;;;15.70;100.00
18795;BME280;29610;49.022;12.114;2022-09-09T04:11:16;97485.13;;;15.68;100.00
18795;BME280;29610;49.022;12.114;2022-09-09T04:13:47;97491.88;;;15.74;100.00
18795;BME280;29610;49.022;12.114;2022-09-09T04:16:17;97494.13;;;15.68;100.00
18795;BME280;29610;49.022;12.114;2022-09-09T04:18:48;97486.03;;;15.75;100.00
18795;BME280;29610;49.022;12.114;2022-09-09T04:21:17;97476.38;;;15.81;100.00
18795;BME280;29610;49.022;12.114;2022-09-09T04:23:46;97474.28;;;15.75;100.00
18795;BME280;29610;49.022;12.114;2022-09-09T04:26:14;97471.97;;;15.77;100.00
18795;BME280;29610;49.022;12.114;2022-09-09T04:28:44;97484.47;;;15.74;100.00
18795;BME280;29610;49.022;12.114;2022-09-09T04:31:21;97479.63;;;15.68;100.00
18795;BME280;29610;49.022;12.114;2022-09-09T04:33:55;97484.56;;;15.78;100.00
18795;BME280;29610;49.022;12.114;2022-09-09T04:36:24;97481.88;;;15.81;100.00
18795;BME280;29610;49.022;12.114;2022-09-09T04:38:57;97481.88;;;15.81;100.00
18795;BME280;29610;49.022;12.114;2022-09-09T04:41:26;97475.16;;;15.79;100.00
18795;BME280;29610;49.022;12.114;2022-09-09T04:43:54;97473.59;;;15.78;100.00
18795;BME280;29610;49.022;12.114;2022-09-09T04:46:23;97476.38;;;15.81;100.00
18795;BME280;29610;49.022;12.114;2022-09-09T04:48:52;97470.69;;;15.71;100.00
18795;BME280;29610;49.022;12.114;2022-09-09T04:51:26;97465.94;;;15.68;100.00
18795;BME280;29610;49.022;12.114;2022-09-09T04:53:55;97469.13;;;15.70;100.00
18795;BME280;29610;49.022;12.114;2022-09-09T04:56:24;97468.31;;;15.69;100.00
18795;BME280;29610;49.022;12.114;2022-09-09T04:58:56;97473.78;;;15.69;100.00
18795;BME280;29610;49.022;12.114;2022-09-09T05:01:38;97468.31;;;15.69;100.00
18795;BME280;29610;49.022;12.114;2022-09-09T05:04:07;97468.44;;;15.76;100.00
18795;BME280;29610;49.022;12.114;2022-09-09T05:06:38;97467.75;;;15.79;100.00
18795;BME280;29610;49.022;12.114;2022-09-09T05:09:07;97457.78;;;15.71;100.00
18795;BME280;29610;49.022;12.114;2022-09-09T05:11:35;97461.19;;;15.65;100.00
18795;BME280;29610;49.022;12.114;2022-09-09T05:14:28;97464.41;;;15.51;100.00
18795;BME280;29610;49.022;12.114;2022-09-09T05:16:56;97467.16;;;15.70;100.00
18795;BME280;29610;49.022;12.114;2022-09-09T05:19:25;97469.84;;;15.86;100.00
18795;BME280;29610;49.022;12.114;2022-09-09T05:21:55;97471.13;;;15.92;100.00
18795;BME280;29610;49.022;12.114;2022-09-09T05:24:31;97477.09;;;15.97;100.00
18795;BME280;29610;49.022;12.114;2022-09-09T05:27:01;97480.81;;;16.05;100.00
18795;BME280;29610;49.022;12.114;2022-09-09T05:29:30;97479.63;;;16.25;100.00
18795;BME280;29610;49.022;12.114;2022-09-09T05:32:03;97473.59;;;16.39;100.00
18795;BME280;29610;49.022;12.114;2022-09-09T05:34:31;97484.59;;;16.58;100.00
18795;BME280;29610;49.022;12.114;2022-09-09T05:37:02;97474.69;;;16.76;100.00
18795;BME280;29610;49.022;12.114;2022-09-09T05:39:32;97472.53;;;16.88;100.00
18795;BME280;29610;49.022;12.114;2022-09-09T05:42:01;97477.66;;;16.90;100.00
18795;BME280;29610;49.022;12.114;2022-09-09T05:44:30;97484.84;;;16.98;100.00
18795;BME280;29610;49.022;12.114;2022-09-09T05:47:00;97490.00;;;17.25;100.00
18795;BME280;29610;49.022;12.114;2022-09-09T05:49:28;97490.75;;;17.45;100.00
18795;BME280;29610;49.022;12.114;2022-09-09T05:51:57;97495.91;;;17.50;100.00
18795;BME280;29610;49.022;12.114;2022-09-09T05:54:27;97494.06;;;17.58;100.00
18795;BME280;29610;49.022;12.114;2022-09-09T05:56:55;97488.69;;;17.65;100.00
18795;BME280;29610;49.022;12.114;2022-09-09T05:59:24;97490.81;;;17.78;100.00
18795;BME280;29610;49.022;12.114;2022-09-09T06:01:55;97491.59;;;17.79;100.00
18795;BME280;29610;49.022;12.114;2022-09-09T06:04:29;97488.28;;;17.96;100.00
18795;BME280;29610;49.022;12.114;2022-09-09T06:07:00;97491.88;;;18.00;100.00
18795;BME280;29610;49.022;12.114;2022-09-09T06:09:31;97497.28;;;17.93;100.00
18795;BME280;29610;49.022;12.114;2022-09-09T06:12:00;97492.84;;;17.85;100.00
18795;BME280;29610;49.022;12.114;2022-09-09T06:14:32;97492.63;;;17.67;100.00
18795;BME280;29610;49.022;12.114;2022-09-09T06:17:02;97491.81;;;17.67;100.00
18795;BME280;29610;49.022;12.114;2022-09-09T06:19:31;97490.13;;;17.55;100.00
18795;BME280;29610;49.022;12.114;2022-09-09T06:22:00;97495.34;;;17.41;100.00
18795;BME280;29610;49.022;12.114;2022-09-09T06:24:32;97500.25;;;17.28;100.00
18795;BME280;29610;49.022;12.114;2022-09-09T06:27:03;97496.25;;;17.22;100.00
18795;BME280;29610;49.022;12.114;2022-09-09T06:29:34;97493.72;;;17.36;100.00
18795;BME280;29610;49.022;12.114;2022-09-09T06:32:03;97494.84;;;17.58;100.00
18795;BME280;29610;49.022;12.114;2022-09-09T06:34:32;97493.50;;;17.75;100.00
18795;BME280;29610;49.022;12.114;2022-09-09T06:37:00;97493.94;;;17.77;100.00
18795;BME280;29610;49.022;12.114;2022-09-09T06:39:44;97495.94;;;18.09;100.00
18795;BME280;29610;49.022;12.114;2022-09-09T06:42:13;97499.38;;;18.36;100.00
18795;BME280;29610;49.022;12.114;2022-09-09T06:44:48;97496.38;;;18.48;100.00
18795;BME280;29610;49.022;12.114;2022-09-09T06:47:23;97491.44;;;18.64;100.00
18795;BME280;29610;49.022;12.114;2022-09-09T06:49:53;97487.22;;;18.73;100.00
18795;BME280;29610;49.022;12.114;2022-09-09T06:52:22;97489.59;;;18.75;100.00
18795;BME280;29610;49.022;12.114;2022-09-09T06:54:55;97494.06;;;18.90;100.00
18795;BME280;29610;49.022;12.114;2022-09-09T06:57:26;97498.53;;;19.05;100.00
18795;BME280;29610;49.022;12.114;2022-09-09T07:00:08;97501.91;;;19.32;100.00
18795;BME280;29610;49.022;12.114;2022-09-09T07:02:36;97488.31;;;19.60;100.00
18795;BME280;29610;49.022;12.114;2022-09-09T07:05:08;97497.75;;;18.64;100.00
18795;BME280;29610;49.022;12.114;2022-09-09T07:07:37;97495.06;;;19.15;100.00
18795;BME280;29610;49.022;12.114;2022-09-09T07:10:09;97493.41;;;19.54;100.00
18795;BME280;29610;49.022;12.114;2022-09-09T07:12:40;97499.91;;;19.90;100.00
18795;BME280;29610;49.022;12.114;2022-09-09T07:15:10;97501.72;;;20.29;100.00
18795;BME280;29610;49.022;12.114;2022-09-09T07:17:43;97505.75;;;20.57;100.00
18795;BME280;29610;49.022;12.114;2022-09-09T07:20:12;97505.00;;;20.91;100.00
18795;BME280;29610;49.022;12.114;2022-09-09T07:22:41;97509.00;;;21.04;100.00
18795;BME280;29610;49.022;12.114;2022-09-09T07:25:12;97519.25;;;21.07;100.00
18795;BME280;29610;49.022;12.114;2022-09-09T07:27:41;97512.16;;;21.17;100.00
18795;BME280;29610;49.022;12.114;2022-09-09T07:30:11;97507.81;;;21.30;100.00
18795;BME280;29610;49.022;12.114;2022-09-09T07:32:51;97510.97;;;21.42;100.00
18795;BME280;29610;49.022;12.114;2022-09-09T07:35:20;97515.31;;;21.33;100.00
18795;BME280;29610;49.022;12.114;2022-09-09T07:37:49;97514.91;;;21.52;100.00
18795;BME280;29610;49.022;12.114;2022-09-09T07:40:21;97523.59;;;21.64;100.00
18795;BME280;29610;49.022;12.114;2022-09-09T07:42:53;97540.97;;;21.65;100.00
18795;BME280;29610;49.022;12.114;2022-09-09T07:45:21;97537.41;;;21.89;100.00
18795;BME280;29610;49.022;12.114;2022-09-09T07:47:50;97542.50;;;22.05;100.00
18795;BME280;29610;49.022;12.114;2022-09-09T07:50:20;97546.38;;;22.25;100.00
18795;BME280;29610;49.022;12.114;2022-09-09T07:52:51;97543.25;;;22.12;100.00
18795;BME280;29610;49.022;12.114;2022-09-09T07:55:22;97568.63;;;21.76;100.00
18795;BME280;29610;49.022;12.114;2022-09-09T07:57:53;97563.09;;;21.37;100.00
18795;BME280;29610;49.022;12.114;2022-09-09T08:00:23;97564.09;;;20.62;100.00
18795;BME280;29610;49.022;12.114;2022-09-09T08:02:56;97550.91;;;20.17;100.00
18795;BME280;29610;49.022;12.114;2022-09-09T08:05:24;97553.47;;;19.85;100.00
18795;BME280;29610;49.022;12.114;2022-09-09T08:07:53;97567.31;;;19.38;100.00
18795;BME280;29610;49.022;12.114;2022-09-09T08:10:23;97569.31;;;19.01;100.00
18795;BME280;29610;49.022;12.114;2022-09-09T08:12:54;97565.47;;;18.72;100.00
18795;BME280;29610;49.022;12.114;2022-09-09T08:15:45;97571.09;;;18.50;100.00
18795;BME280;29610;49.022;12.114;2022-09-09T08:18:14;97576.41;;;18.36;100.00
18795;BME280;29610;49.022;12.114;2022-09-09T08:20:44;97578.28;;;18.28;100.00
18795;BME280;29610;49.022;12.114;2022-09-09T08:23:12;97579.63;;;18.12;100.00
18795;BME280;29610;49.022;12.114;2022-09-09T08:25:46;97584.72;;;18.10;100.00
18795;BME280;29610;49.022;12.114;2022-09-09T08:28:16;97586.75;;;18.16;100.00
18795;BME280;29610;49.022;12.114;2022-09-09T08:30:45;97579.56;;;18.08;100.00
18795;BME280;29610;49.022;12.114;2022-09-09T08:33:15;97586.16;;;18.00;100.00
18795;BME280;29610;49.022;12.114;2022-09-09T08:35:50;97589.59;;;17.94;100.00
18795;BME280;29610;49.022;12.114;2022-09-09T08:38:20;97579.03;;;17.96;100.00
18795;BME280;29610;49.022;12.114;2022-09-09T08:40:57;97577.94;;;18.04;100.00
18795;BME280;29610;49.022;12.114;2022-09-09T08:43:31;97582.69;;;18.07;100.00
18795;BME280;29610;49.022;12.114;2022-09-09T08:46:15;97572.97;;;18.13;100.00
18795;BME280;29610;49.022;12.114;2022-09-09T08:48:56;97588.06;;;18.26;100.00
18795;BME280;29610;49.022;12.114;2022-09-09T08:51:31;97585.38;;;18.29;100.00
18795;BME280;29610;49.022;12.114;2022-09-09T08:54:03;97587.84;;;18.38;100.00
18795;BME280;29610;49.022;12.114;2022-09-09T08:56:34;97592.47;;;18.60;100.00
18795;BME280;29610;49.022;12.114;2022-09-09T08:59:04;97593.56;;;18.88;100.00
18795;BME280;29610;49.022;12.114;2022-09-09T09:01:50;97590.38;;;19.23;100.00
18795;BME280;29610;49.022;12.114;2022-09-09T09:04:44;97577.63;;;19.48;100.00
18795;BME280;29610;49.022;12.114;2022-09-09T09:07:35;97579.88;;;19.90;100.00
18795;BME280;29610;49.022;12.114;2022-09-09T09:10:24;97576.00;;;19.98;100.00
18795;BME280;29610;49.022;12.114;2022-09-09T09:13:26;97577.81;;;20.41;100.00
18795;BME280;29610;49.022;12.114;2022-09-09T09:16:13;97578.34;;;20.68;100.00
18795;BME280;29610;49.022;12.114;2022-09-09T09:18:45;97578.06;;;21.01;100.00
18795;BME280;29610;49.022;12.114;2022-09-09T09:21:21;97582.41;;;21.16;100.00
18795;BME280;29610;49.022;12.114;2022-09-09T09:23:58;97582.44;;;21.33;100.00
18795;BME280;29610;49.022;12.114;2022-09-09T09:26:33;97572.59;;;21.57;100.00
18795;BME280;29610;49.022;12.114;2022-09-09T09:29:13;97569.41;;;21.72;100.00
18795;BME280;29610;49.022;12.114;2022-09-09T09:31:45;97563.47;;;21.88;100.00
18795;BME280;29610;49.022;12.114;2022-09-09T09:34:16;97564.28;;;21.82;100.00
18795;BME280;29610;49.022;12.114;2022-09-09T09:36:54;97571.41;;;21.79;100.00
18795;BME280;29610;49.022;12.114;2022-09-09T09:39:28;97565.44;;;21.98;100.00
18795;BME280;29610;49.022;12.114;2022-09-09T09:42:18;97557.91;;;22.02;100.00
18795;BME280;29610;49.022;12.114;2022-09-09T09:44:53;97558.69;;;22.10;100.00
18795;BME280;29610;49.022;12.114;2022-09-09T09:47:23;97553.91;;;22.21;100.00
18795;BME280;29610;49.022;12.114;2022-09-09T09:50:17;97550.31;;;22.34;100.00
18795;BME280;29610;49.022;12.114;2022-09-09T09:52:55;97557.50;;;22.18;100.00
18795;BME280;29610;49.022;12.114;2022-09-09T09:55:28;97552.63;;;22.53;100.00
18795;BME280;29610;49.022;12.114;2022-09-09T09:58:03;97552.19;;;22.62;100.00
18795;BME280;29610;49.022;12.114;2022-09-09T10:00:34;97550.50;;;22.82;100.00
18795;BME280;29610;49.022;12.114;2022-09-09T10:03:22;97550.78;;;23.01;100.00
18795;BME280;29610;49.022;12.114;2022-09-09T10:05:53;97548.75;;;22.23;100.00
18795;BME280;29610;49.022;12.114;2022-09-09T10:08:24;97552.19;;;22.65;100.00
18795;BME280;29610;49.022;12.114;2022-09-09T10:11:12;97543.16;;;23.16;100.00
18795;BME280;29610;49.022;12.114;2022-09-09T10:13:58;97529.28;;;23.67;100.00
18795;BME280;29610;49.022;12.114;2022-09-09T10:16:52;97536.66;;;24.25;100.00
18795;BME280;29610;49.022;12.114;2022-09-09T10:19:31;97536.50;;;24.35;100.00
18795;BME280;29610;49.022;12.114;2022-09-09T10:22:15;97541.53;;;24.47;100.00
18795;BME280;29610;49.022;12.114;2022-09-09T10:25:17;97544.66;;;24.83;100.00
18795;BME280;29610;49.022;12.114;2022-09-09T10:28:11;97543.72;;;25.20;100.00
18795;BME280;29610;49.022;12.114;2022-09-09T10:30:58;97540.19;;;25.69;100.00
18795;BME280;29610;49.022;12.114;2022-09-09T10:33:46;97541.56;;;25.31;100.00
18795;BME280;29610;49.022;12.114;2022-09-09T10:36:22;97539.97;;;24.77;100.00
18795;BME280;29610;49.022;12.114;2022-09-09T10:38:58;97534.66;;;25.16;100.00
18795;BME280;29610;49.022;12.114;2022-09-09T10:41:45;97543.38;;;25.18;100.00
18795;BME280;29610;49.022;12.114;2022-09-09T10:44:36;97542.16;;;24.92;100.00
18795;BME280;29610;49.022;12.114;2022-09-09T10:47:45;97544.66;;;24.49;100.00
18795;BME280;29610;49.022;12.114;2022-09-09T10:50:40;97550.31;;;24.42;100.00
18795;BME280;29610;49.022;12.114;2022-09-09T10:53:38;97546.53;;;24.26;100.00
18795;BME280;29610;49.022;12.114;2022-09-09T10:56:13;97545.19;;;24.41;100.00
18795;BME280;29610;49.022;12.114;2022-09-09T10:58:50;97548.81;;;24.98;100.00
18795;BME280;29610;49.022;12.114;2022-09-09T11:01:25;97549.88;;;25.08;100.00
18795;BME280;29610;49.022;12.114;2022-09-09T11:04:00;97545.88;;;25.09;100.00
18795;BME280;29610;49.022;12.114;2022-09-09T11:06:39;97545.97;;;25.28;100.00
18795;BME280;29610;49.022;12.114;2022-09-09T11:09:16;97546.47;;;24.97;100.00
18795;BME280;29610;49.022;12.114;2022-09-09T11:11:52;97539.94;;;25.07;100.00
18795;BME280;29610;49.022;12.114;2022-09-09T11:14:29;97536.06;;;25.01;100.00
18795;BME280;29610;49.022;12.114;2022-09-09T11:17:10;97535.44;;;25.16;100.00
18795;BME280;29610;49.022;12.114;2022-09-09T11:19:43;97537.91;;;24.84;100.00
18795;BME280;29610;49.022;12.114;2022-09-09T11:22:25;97530.25;;;25.68;100.00
18795;BME280;29610;49.022;12.114;2022-09-09T11:25:01;97531.00;;;26.15;100.00
18795;BME280;29610;49.022;12.114;2022-09-09T11:27:51;97520.88;;;26.44;100.00
18795;BME280;29610;49.022;12.114;2022-09-09T11:30:23;97519.34;;;26.78;100.00
18795;BME280;29610;49.022;12.114;2022-09-09T11:33:57;97521.59;;;26.67;100.00
18795;BME280;29610;49.022;12.114;2022-09-09T11:37:19;97531.63;;;25.56;100.00
18795;BME280;29610;49.022;12.114;2022-09-09T11:40:22;97534.19;;;25.70;100.00
18795;BME280;29610;49.022;12.114;2022-09-09T11:43:04;97532.91;;;25.52;100.00
18795;BME280;29610;49.022;12.114;2022-09-09T11:45:35;97537.19;;;26.03;100.00
18795;BME280;29610;49.022;12.114;2022-09-09T11:48:26;97533.50;;;25.63;100.00
18795;BME280;29610;49.022;12.114;2022-09-09T11:51:08;97534.59;;;25.46;100.00
18795;BME280;29610;49.022;12.114;2022-09-09T11:53:52;97534.81;;;25.32;100.00
18795;BME280;29610;49.022;12.114;2022-09-09T11:56:28;97532.34;;;25.11;100.00
18795;BME280;29610;49.022;12.114;2022-09-09T11:59:01;97526.72;;;25.87;100.00
18795;BME280;29610;49.022;12.114;2022-09-09T12:01:37;97515.66;;;26.26;100.00
18795;BME280;29610;49.022;12.114;2022-09-09T12:04:27;97515.06;;;26.74;100.00
18795;BME280;29610;49.022;12.114;2022-09-09T12:07:00;97513.84;;;26.75;100.00
18795;BME280;29610;49.022;12.114;2022-09-09T12:09:45;97507.44;;;26.94;100.00
18795;BME280;29610;49.022;12.114;2022-09-09T12:12:28;97505.09;;;26.37;100.00
18795;BME280;29610;49.022;12.114;2022-09-09T12:15:24;97506.16;;;25.58;100.00
18795;BME280;29610;49.022;12.114;2022-09-09T12:17:57;97502.59;;;25.57;100.00
18795;BME280;29610;49.022;12.114;2022-09-09T12:20:36;97510.66;;;25.25;100.00
18795;BME280;29610;49.022;12.114;2022-09-09T12:25:09;97515.00;;;25.26;100.00
18795;BME280;29610;49.022;12.114;2022-09-09T12:28:04;97503.25;;;25.88;100.00
18795;BME280;29610;49.022;12.114;2022-09-09T12:30:49;97504.78;;;26.12;100.00
18795;BME280;29610;49.022;12.114;2022-09-09T12:33:24;97491.84;;;26.41;100.00
18795;BME280;29610;49.022;12.114;2022-09-09T12:35:57;97500.50;;;26.27;100.00
18795;BME280;29610;49.022;12.114;2022-09-09T12:38:37;97487.69;;;27.04;100.00
18795;BME280;29610;49.022;12.114;2022-09-09T12:41:22;97494.41;;;26.71;100.00
18795;BME280;29610;49.022;12.114;2022-09-09T12:44:04;97489.91;;;26.58;100.00
18795;BME280;29610;49.022;12.114;2022-09-09T12:46:39;97488.59;;;25.84;100.00
18795;BME280;29610;49.022;12.114;2022-09-09T12:49:29;97488.00;;;24.74;100.00
18795;BME280;29610;49.022;12.114;2022-09-09T12:52:04;97483.88;;;24.25;100.00
18795;BME280;29610;49.022;12.114;2022-09-09T12:54:36;97484.06;;;24.11;100.00
18795;BME280;29610;49.022;12.114;2022-09-09T12:57:12;97477.81;;;24.00;100.00
18795;BME280;29610;49.022;12.114;2022-09-09T12:59:43;97470.31;;;23.97;100.00
18795;BME280;29610;49.022;12.114;2022-09-09T13:02:22;97471.38;;;23.32;100.00
18795;BME280;29610;49.022;12.114;2022-09-09T13:04:52;97463.34;;;22.93;100.00
18795;BME280;29610;49.022;12.114;2022-09-09T13:07:22;97464.31;;;22.69;100.00
18795;BME280;29610;49.022;12.114;2022-09-09T13:09:52;97459.16;;;22.71;100.00
18795;BME280;29610;49.022;12.114;2022-09-09T13:12:23;97456.91;;;22.52;100.00
18795;BME280;29610;49.022;12.114;2022-09-09T13:14:55;97450.31;;;22.22;100.00
18795;BME280;29610;49.022;12.114;2022-09-09T13:17:27;97438.56;;;22.00;100.00
18795;BME280;29610;49.022;12.114;2022-09-09T13:19:57;97437.66;;;22.21;100.00
18795;BME280;29610;49.022;12.114;2022-09-09T13:22:33;97437.50;;;23.07;100.00
18795;BME280;29610;49.022;12.114;2022-09-09T13:25:13;97434.47;;;23.39;100.00
18795;BME280;29610;49.022;12.114;2022-09-09T13:27:58;97424.59;;;23.71;100.00
18795;BME280;29610;49.022;12.114;2022-09-09T13:30:30;97426.88;;;24.17;100.00
18795;BME280;29610;49.022;12.114;2022-09-09T13:33:04;97416.97;;;24.73;100.00